Time;durP1;ratioP1;P1;durP2;ratioP2;P2;SDS_P1;SDS_P2;PMS_P1;PMS_P2;Temp;Humidity;BMP_temperature;BMP_pressure;BME280_temperature;BME280_humidity;BME280_pressure;Samples;Min_cycle;Max_cycle;Signal;HPM_P1;HPM_P2
2022/03/03 00:02:24;;;;;;;59.00;28.00;;;1.40;99.90;;;;;;5072604;28;20326;-59
2022/03/03 00:04:49;;;;;;;57.33;27.43;;;1.40;99.90;;;;;;5071466;28;20172;-58
2022/03/03 00:07:15;;;;;;;57.83;29.17;;;1.50;99.90;;;;;;5072715;28;20164;-59
2022/03/03 00:09:41;;;;;;;60.40;27.13;;;1.00;99.90;;;;;;5072661;28;20168;-57
2022/03/03 00:12:07;;;;;;;56.60;26.13;;;1.50;99.90;;;;;;5071513;28;20171;-57
2022/03/03 00:14:33;;;;;;;53.97;26.33;;;1.60;99.90;;;;;;5072906;28;20218;-53
2022/03/03 00:16:58;;;;;;;63.00;28.03;;;0.40;99.90;;;;;;5072739;28;20962;-54
2022/03/03 00:19:24;;;;;;;76.40;28.37;;;1.50;99.90;;;;;;5071219;28;20172;-54
2022/03/03 00:21:50;;;;;;;60.50;27.87;;;1.40;99.90;;;;;;5072535;28;20180;-54
2022/03/03 00:24:15;;;;;;;58.23;27.80;;;1.40;99.90;;;;;;5070979;28;20223;-57
2022/03/03 00:26:41;;;;;;;51.23;25.30;;;1.40;99.90;;;;;;5072693;28;20212;-58
2022/03/03 00:29:07;;;;;;;56.67;26.43;;;0.90;99.90;;;;;;5072530;28;20576;-52
2022/03/03 00:31:33;;;;;;;59.70;28.47;;;1.70;99.90;;;;;;5072516;28;20398;-56
2022/03/03 00:33:59;;;;;;;63.00;29.30;;;1.40;99.90;;;;;;5072562;28;20229;-57
2022/03/03 00:36:25;;;;;;;66.67;29.33;;;1.40;99.90;;;;;;5072443;28;20534;-56
2022/03/03 00:38:51;;;;;;;64.40;29.07;;;1.20;99.90;;;;;;5072345;28;20175;-54
2022/03/03 00:41:18;;;;;;;61.90;27.70;;;1.00;99.90;;;;;;5072380;28;20157;-52
2022/03/03 00:43:43;;;;;;;56.33;27.73;;;1.20;99.90;;;;;;5072459;28;20414;-54
2022/03/03 00:46:09;;;;;;;65.43;30.03;;;1.10;99.90;;;;;;5072206;28;20413;-56
2022/03/03 00:48:35;;;;;;;55.93;26.43;;;1.10;99.90;;;;;;5072337;28;20172;-54
2022/03/03 00:51:04;;;;;;;61.77;28.23;;;1.00;99.90;;;;;;5072428;28;20510;-55
2022/03/03 00:53:29;;;;;;;61.53;27.67;;;1.30;99.90;;;;;;5072620;28;20177;-52
2022/03/03 00:55:55;;;;;;;53.83;27.17;;;0.80;99.90;;;;;;5071955;28;20967;-55
2022/03/03 00:58:20;;;;;;;69.97;26.13;;;1.00;99.90;;;;;;5072254;28;20497;-54
2022/03/03 01:00:46;;;;;;;66.83;28.07;;;1.00;99.90;;;;;;5072036;28;20164;-53
2022/03/03 01:03:12;;;;;;;66.10;29.80;;;1.10;99.90;;;;;;5072096;28;20168;-54
2022/03/03 01:05:37;;;;;;;64.40;29.07;;;1.00;99.90;;;;;;5070881;28;20653;-56
2022/03/03 01:08:04;;;;;;;57.90;27.83;;;1.10;99.90;;;;;;5072096;28;20165;-54
2022/03/03 01:10:30;;;;;;;58.97;29.30;;;1.00;99.90;;;;;;5072140;28;20160;-53
2022/03/03 01:12:56;;;;;;;59.83;28.27;;;1.10;99.90;;;;;;5072193;28;20551;-54
2022/03/03 01:15:22;;;;;;;61.30;28.70;;;1.10;99.90;;;;;;5071933;28;20470;-54
2022/03/03 01:17:48;;;;;;;67.50;31.30;;;1.10;99.90;;;;;;5072248;28;20180;-56
2022/03/03 01:20:13;;;;;;;61.30;30.30;;;1.00;99.90;;;;;;5071857;28;20915;-53
2022/03/03 01:22:39;;;;;;;65.73;30.10;;;1.20;99.90;;;;;;5072312;28;20208;-55
2022/03/03 01:25:05;;;;;;;66.00;29.63;;;1.40;99.90;;;;;;5075697;28;20212;-51
2022/03/03 01:27:32;;;;;;;62.97;29.07;;;1.30;99.90;;;;;;5075965;28;20727;-54
2022/03/03 01:29:58;;;;;;;60.77;29.90;;;1.10;99.90;;;;;;5075568;28;20414;-57
2022/03/03 01:32:24;;;;;;;65.80;31.00;;;1.00;99.90;;;;;;5075712;28;20472;-54
2022/03/03 01:34:49;;;;;;;57.03;29.27;;;1.20;99.90;;;;;;5075737;28;20234;-53
2022/03/03 01:37:15;;;;;;;67.57;30.53;;;1.20;99.90;;;;;;5075474;28;20234;-54
2022/03/03 01:39:40;;;;;;;61.87;29.77;;;0.90;99.90;;;;;;5075586;28;20172;-52
2022/03/03 01:42:06;;;;;;;61.20;29.73;;;0.90;99.90;;;;;;5075329;28;20256;-53
2022/03/03 01:44:32;;;;;;;70.63;32.33;;;0.80;99.90;;;;;;5075722;28;20175;-51
2022/03/03 01:46:58;;;;;;;68.23;31.33;;;0.80;99.90;;;;;;5075665;28;20414;-56
2022/03/03 01:49:25;;;;;;;73.17;32.40;;;1.00;99.90;;;;;;5075244;28;20168;-54
2022/03/03 01:51:51;;;;;;;74.37;30.83;;;1.20;99.90;;;;;;5075246;28;20785;-56
2022/03/03 01:54:17;;;;;;;62.40;30.70;;;1.70;99.90;;;;;;5075313;28;20402;-53
2022/03/03 01:56:45;;;;;;;63.30;29.10;;;1.10;99.90;;;;;;5075126;28;20481;-57
2022/03/03 01:59:12;;;;;;;64.77;31.50;;;0.60;99.90;;;;;;5075058;28;20179;-52
2022/03/03 02:01:37;;;;;;;66.23;29.47;;;0.90;99.90;;;;;;5075323;28;20421;-54
2022/03/03 02:04:07;;;;;;;64.50;28.57;;;1.10;99.90;;;;;;5075068;28;20762;-54
2022/03/03 02:06:34;;;;;;;63.00;28.30;;;;;;;;;;5073914;28;20613;-53
2022/03/03 02:09:00;;;;;;;68.27;29.50;;;1.10;99.90;;;;;;5075429;28;20440;-52
2022/03/03 02:11:26;;;;;;;65.57;29.50;;;1.10;99.90;;;;;;5074962;28;20914;-54
2022/03/03 02:13:52;;;;;;;66.83;30.00;;;1.10;99.90;;;;;;5074845;28;20533;-54
2022/03/03 02:16:18;;;;;;;60.03;28.30;;;1.00;99.90;;;;;;5075026;28;20901;-52
2022/03/03 02:18:44;;;;;;;65.30;27.73;;;0.90;99.90;;;;;;5074844;28;20414;-55
2022/03/03 02:21:15;;;;;;;58.53;28.87;;;0.70;99.90;;;;;;5074839;28;20489;-54
2022/03/03 02:23:41;;;;;;;64.13;28.20;;;0.80;99.90;;;;;;5074612;28;21103;-53
2022/03/03 02:26:15;;;;;;;56.90;27.80;;;0.80;99.90;;;;;;5074738;28;20490;-56
2022/03/03 02:28:42;;;;;;;54.17;24.77;;;0.90;99.90;;;;;;5074650;28;20271;-57
2022/03/03 02:31:07;;;;;;;61.63;27.90;;;0.70;99.90;;;;;;5073412;28;20403;-56
2022/03/03 02:33:33;;;;;;;55.10;25.57;;;0.50;99.90;;;;;;5073853;28;20414;-54
2022/03/03 02:36:18;;;;;;;59.73;27.27;;;0.40;99.90;;;;;;5074522;28;20704;-53
2022/03/03 02:38:45;;;;;;;56.70;28.40;;;0.40;99.90;;;;;;5074789;28;20196;-51
2022/03/03 02:41:10;;;;;;;70.07;28.93;;;0.40;99.90;;;;;;5074780;28;20424;-53
2022/03/03 02:43:36;;;;;;;59.20;28.90;;;0.60;99.90;;;;;;5073027;28;20450;-56
2022/03/03 02:46:02;;;;;;;55.43;29.07;;;0.50;99.90;;;;;;5074499;28;20169;-54
2022/03/03 02:48:28;;;;;;;66.30;28.13;;;0.40;99.90;;;;;;5074511;28;20168;-54
2022/03/03 02:50:53;;;;;;;57.27;28.30;;;0.40;99.90;;;;;;5074277;28;20770;-56
2022/03/03 02:53:19;;;;;;;68.83;27.13;;;0.40;99.90;;;;;;5074130;28;20176;-55
2022/03/03 02:55:45;;;;;;;58.17;26.80;;;0.50;99.90;;;;;;5074069;28;20192;-53
2022/03/03 02:58:11;;;;;;;58.13;27.03;;;0.40;99.90;;;;;;5074449;28;20192;-54
2022/03/03 03:00:42;;;;;;;55.13;27.03;;;1.80;99.90;;;;;;5074019;28;20173;-55
2022/03/03 03:03:12;;;;;;;64.17;26.93;;;0.40;99.90;;;;;;5073950;28;20494;-55
2022/03/03 03:05:37;;;;;;;52.90;26.80;;;0.30;99.90;;;;;;5073964;28;20756;-53
2022/03/03 03:08:04;;;;;;;56.73;26.70;;;0.10;99.90;;;;;;5073941;28;20394;-54
2022/03/03 03:10:30;;;;;;;59.07;28.87;;;0.50;99.90;;;;;;5074044;28;20185;-55
2022/03/03 03:12:56;;;;;;;54.53;25.70;;;0.40;99.90;;;;;;5073836;28;20468;-54
2022/03/03 03:15:21;;;;;;;55.70;27.10;;;0.20;99.90;;;;;;5073774;28;20506;-53
2022/03/03 03:17:47;;;;;;;55.73;27.03;;;0.50;99.90;;;;;;5073696;28;20185;-54
2022/03/03 03:20:13;;;;;;;57.63;24.80;;;0.90;99.90;;;;;;5073940;28;20172;-55
2022/03/03 03:22:39;;;;;;;47.23;24.20;;;0.50;99.90;;;;;;5073695;28;20169;-54
2022/03/03 03:25:09;;;;;;;50.70;25.63;;;0.50;99.90;;;;;;5073485;28;20220;-53
2022/03/03 03:27:37;;;;;;;54.13;25.23;;;0.30;99.90;;;;;;5073655;28;20173;-53
2022/03/03 03:30:04;;;;;;;59.80;25.37;;;0.30;99.90;;;;;;5072305;28;20950;-52
2022/03/03 03:32:30;;;;;;;53.43;23.37;;;0.50;99.90;;;;;;5073667;28;20421;-55
2022/03/03 03:34:56;;;;;;;54.93;25.73;;;0.50;99.90;;;;;;5073386;28;20407;-53
2022/03/03 03:37:21;;;;;;;59.60;25.73;;;0.40;99.90;;;;;;5073596;28;20220;-55
2022/03/03 03:39:47;;;;;;;47.90;23.20;;;0.30;99.90;;;;;;5073308;28;20168;-52
2022/03/03 03:42:12;;;;;;;47.00;22.93;;;0.50;99.90;;;;;;5073124;28;20644;-54
2022/03/03 03:44:38;;;;;;;47.23;23.20;;;0.50;99.90;;;;;;5073219;28;20169;-53
2022/03/03 03:47:05;;;;;;;50.30;22.93;;;0.40;99.90;;;;;;5073171;28;20202;-56
2022/03/03 03:49:31;;;;;;;47.47;24.20;;;0.20;99.90;;;;;;5073159;28;20173;-54
2022/03/03 03:51:57;;;;;;;49.23;23.93;;;0.10;99.90;;;;;;5073153;28;20419;-52
2022/03/03 03:54:22;;;;;;;46.13;22.80;;;0.10;99.90;;;;;;5073015;28;20453;-53
2022/03/03 03:56:48;;;;;;;50.33;23.87;;;0.20;99.90;;;;;;5072802;28;20557;-52
2022/03/03 03:59:13;;;;;;;48.07;24.23;;;0.10;99.90;;;;;;5072895;28;20625;-56
2022/03/03 04:01:39;;;;;;;53.03;25.10;;;0.20;99.90;;;;;;5072895;28;20176;-53
2022/03/03 04:04:05;;;;;;;54.53;26.07;;;0.10;99.90;;;;;;5072809;28;20168;-58
2022/03/03 04:06:32;;;;;;;55.10;27.80;;;0.10;99.90;;;;;;5072966;28;20177;-56
2022/03/03 04:08:58;;;;;;;53.03;26.70;;;0.10;99.90;;;;;;5072751;28;20168;-55
2022/03/03 04:11:24;;;;;;;61.00;28.63;;;0.10;99.90;;;;;;5072860;28;20433;-53
2022/03/03 04:13:50;;;;;;;60.00;27.40;;;0.20;99.90;;;;;;5070843;28;20172;-54
2022/03/03 04:16:15;;;;;;;55.57;26.70;;;-0.30;99.90;;;;;;5072076;28;20628;-56
2022/03/03 04:18:41;;;;;;;53.97;25.97;;;0.20;99.90;;;;;;5072259;28;20173;-56
2022/03/03 04:21:07;;;;;;;56.33;27.37;;;-0.10;99.90;;;;;;5070867;28;20263;-55
2022/03/03 04:23:33;;;;;;;57.00;26.53;;;0.00;99.90;;;;;;5071895;28;20584;-52
2022/03/03 04:25:59;;;;;;;60.77;28.23;;;0.00;99.90;;;;;;5072265;28;20199;-53
2022/03/03 04:28:24;;;;;;;57.27;28.47;;;0.20;99.90;;;;;;5071849;28;20168;-52
2022/03/03 04:30:50;;;;;;;61.03;27.97;;;-0.10;99.90;;;;;;5072006;28;20169;-57
2022/03/03 04:33:16;;;;;;;59.97;27.53;;;0.20;99.90;;;;;;5071889;28;20252;-57
2022/03/03 04:35:42;;;;;;;49.17;26.60;;;0.20;99.90;;;;;;5071983;28;20168;-54
2022/03/03 04:38:07;;;;;;;51.07;25.90;;;-0.10;99.90;;;;;;5072208;28;20176;-55
2022/03/03 04:40:33;;;;;;;69.00;28.67;;;0.00;99.90;;;;;;5071998;28;20421;-55
2022/03/03 04:42:58;;;;;;;60.53;26.30;;;-0.10;99.90;;;;;;5058844;28;20176;-55
2022/03/03 04:45:25;;;;;;;68.30;24.50;;;-0.10;99.90;;;;;;5051205;28;20181;-52
2022/03/03 04:47:51;;;;;;;53.17;25.53;;;-0.20;99.90;;;;;;5051445;28;20169;-56
2022/03/03 04:50:17;;;;;;;48.20;23.83;;;-0.30;99.90;;;;;;5051247;28;20925;-57
2022/03/03 04:52:43;;;;;;;55.70;24.83;;;-0.10;99.90;;;;;;5051115;28;20431;-58
2022/03/03 04:55:09;;;;;;;58.03;26.07;;;-0.20;99.90;;;;;;5051238;28;20173;-57
2022/03/03 04:57:34;;;;;;;51.17;25.30;;;-0.20;99.90;;;;;;5050201;28;20578;-56
2022/03/03 05:00:00;;;;;;;51.83;24.57;;;-0.50;99.90;;;;;;5051232;28;20420;-56
2022/03/03 05:02:26;;;;;;;51.97;26.20;;;-0.30;99.90;;;;;;5051352;28;20644;-58
2022/03/03 05:04:52;;;;;;;59.10;26.20;;;-0.50;99.90;;;;;;5051451;28;20415;-54
2022/03/03 05:07:19;;;;;;;59.30;25.87;;;-0.50;99.90;;;;;;5050297;28;20177;-54
2022/03/03 05:09:44;;;;;;;57.30;26.60;;;-0.30;99.90;;;;;;5051443;28;20177;-55
2022/03/03 05:12:10;;;;;;;61.73;27.20;;;-0.40;99.90;;;;;;5051551;28;20433;-57
2022/03/03 05:14:36;;;;;;;56.10;26.57;;;-0.40;99.90;;;;;;5051516;28;20204;-57
2022/03/03 05:17:01;;;;;;;64.03;28.43;;;-0.40;99.90;;;;;;5051573;28;20240;-53
2022/03/03 05:19:27;;;;;;;60.43;27.63;;;-0.50;99.90;;;;;;5050096;28;20633;-54
2022/03/03 05:21:52;;;;;;;53.33;24.67;;;-0.20;99.90;;;;;;5051347;28;20184;-58
2022/03/03 05:24:18;;;;;;;53.60;25.10;;;-0.50;99.90;;;;;;5051221;28;20238;-57
2022/03/03 05:26:44;;;;;;;58.30;26.97;;;-0.40;99.90;;;;;;5049989;28;20212;-57
2022/03/03 05:29:10;;;;;;;58.03;27.27;;;-0.50;99.90;;;;;;5051357;28;20172;-55
2022/03/03 05:31:35;;;;;;;54.57;26.37;;;-0.50;99.90;;;;;;5051272;28;20169;-55
2022/03/03 05:34:03;;;;;;;63.80;27.60;;;-0.90;99.90;;;;;;5051384;28;20224;-52
2022/03/03 05:36:29;;;;;;;65.10;26.27;;;-0.20;99.90;;;;;;5051407;28;20200;-54
2022/03/03 05:38:57;;;;;;;77.77;27.33;;;-0.30;99.90;;;;;;5049897;28;20415;-54
2022/03/03 05:41:24;;;;;;;57.47;26.27;;;-0.50;99.90;;;;;;5051165;28;20411;-56
2022/03/03 05:43:50;;;;;;;63.53;26.43;;;1.40;99.90;;;;;;5049770;28;20811;-53
2022/03/03 05:46:16;;;;;;;60.47;28.10;;;-0.40;99.90;;;;;;5051228;28;20424;-52
2022/03/03 05:48:41;;;;;;;58.80;26.83;;;-0.40;99.90;;;;;;5051241;28;20393;-57
2022/03/03 05:51:08;;;;;;;60.27;27.53;;;-0.40;99.90;;;;;;5051025;28;20629;-56
2022/03/03 05:53:34;;;;;;;67.77;28.23;;;-0.60;99.90;;;;;;5049733;28;20479;-55
2022/03/03 05:56:06;;;;;;;62.77;27.43;;;-0.40;99.90;;;;;;5051030;28;20478;-55
2022/03/03 05:58:46;;;;;;;63.17;28.20;;;-0.40;99.90;;;;;;5051081;28;20173;-53
2022/03/03 06:01:14;;;;;;;64.20;28.27;;;-0.50;99.90;;;;;;5049487;28;20411;-54
2022/03/03 06:03:40;;;;;;;69.97;29.10;;;-0.50;99.90;;;;;;5050771;28;20419;-57
2022/03/03 06:06:16;;;;;;;58.40;27.97;;;-0.50;99.90;;;;;;5050890;28;20812;-54
2022/03/03 06:09:00;;;;;;;60.43;27.13;;;-0.30;99.90;;;;;;5052084;28;20914;-53
2022/03/03 06:11:27;;;;;;;54.90;26.10;;;-0.50;99.90;;;;;;5054207;28;20837;-53
2022/03/03 06:14:03;;;;;;;60.03;27.33;;;-0.40;99.90;;;;;;5054372;28;20423;-53
2022/03/03 06:16:30;;;;;;;59.50;27.50;;;-0.20;99.90;;;;;;5054204;28;20437;-54
2022/03/03 06:18:58;;;;;;;54.17;26.13;;;0.30;99.90;;;;;;5054005;28;20412;-55
2022/03/03 06:21:24;;;;;;;56.97;27.50;;;-0.30;99.90;;;;;;5054064;28;20780;-53
2022/03/03 06:23:49;;;;;;;57.90;26.20;;;-0.30;99.90;;;;;;5054049;28;20542;-56
2022/03/03 06:26:18;;;;;;;54.53;26.20;;;-0.30;99.90;;;;;;5053841;28;20176;-51
2022/03/03 06:28:44;;;;;;;52.23;25.93;;;-0.10;99.90;;;;;;5053944;28;20169;-53
2022/03/03 06:31:11;;;;;;;51.23;25.90;;;-0.20;99.90;;;;;;5053839;28;20411;-55
2022/03/03 06:33:37;;;;;;;59.37;26.47;;;0.70;99.90;;;;;;5053908;28;20418;-54
2022/03/03 06:36:04;;;;;;;55.83;27.07;;;0.60;99.90;;;;;;5053919;28;20455;-56
2022/03/03 06:38:30;;;;;;;64.23;27.70;;;0.00;99.90;;;;;;5054012;28;20419;-54
2022/03/03 06:40:57;;;;;;;53.87;25.13;;;0.20;99.90;;;;;;5054041;28;20462;-57
2022/03/03 06:43:24;;;;;;;56.50;24.90;;;0.00;99.90;;;;;;5054069;28;20464;-53
2022/03/03 06:45:50;;;;;;;54.67;25.30;;;0.20;99.90;;;;;;5053952;28;20422;-52
2022/03/03 06:48:16;;;;;;;53.67;26.30;;;0.30;99.90;;;;;;5053800;28;20416;-56
2022/03/03 06:50:42;;;;;;;62.33;27.23;;;0.30;99.90;;;;;;5053710;28;20387;-52
2022/03/03 06:53:09;;;;;;;57.60;26.53;;;0.30;99.90;;;;;;5053797;28;20415;-54
2022/03/03 06:55:35;;;;;;;56.37;27.03;;;0.40;99.90;;;;;;5053414;28;20462;-49
2022/03/03 06:58:01;;;;;;;63.40;28.07;;;0.00;99.90;;;;;;5053708;28;20420;-52
2022/03/03 07:00:35;;;;;;;59.60;26.83;;;0.60;99.90;;;;;;5053571;28;20811;-55
2022/03/03 07:03:01;;;;;;;53.43;26.13;;;0.30;99.90;;;;;;5053750;28;20173;-53
2022/03/03 07:05:29;;;;;;;54.17;26.70;;;0.60;99.90;;;;;;5049780;28;20443;-54
2022/03/03 07:07:55;;;;;;;60.93;28.17;;;0.80;99.90;;;;;;5015654;28;20416;-54
2022/03/03 07:10:25;;;;;;;58.60;28.40;;;0.80;99.90;;;;;;5033112;28;20917;-56
2022/03/03 07:12:57;;;;;;;54.53;27.33;;;0.90;99.90;;;;;;5029100;28;20421;-54
2022/03/03 07:15:24;;;;;;;55.27;25.67;;;1.30;99.90;;;;;;5040322;28;20917;-54
2022/03/03 07:18:08;;;;;;;62.20;27.83;;;1.20;99.90;;;;;;5032338;28;20466;-59
2022/03/03 07:21:05;;;;;;;55.57;27.67;;;1.10;99.90;;;;;;5032060;28;20943;-60
2022/03/03 07:23:41;;;;;;;62.83;28.40;;;1.30;99.90;;;;;;5032242;28;20500;-55
2022/03/03 07:26:10;;;;;;;60.73;28.03;;;1.30;99.90;;;;;;5032766;28;20408;-52
2022/03/03 07:28:44;;;;;;;60.83;26.33;;;1.20;99.90;;;;;;5033078;28;20437;-58
2022/03/03 07:31:11;;;;;;;62.60;27.37;;;1.30;99.90;;;;;;5032608;28;20412;-55
2022/03/03 07:33:53;;;;;;;62.83;26.03;;;1.30;99.90;;;;;;5032407;28;20912;-56
2022/03/03 07:36:29;;;;;;;60.70;28.10;;;1.30;99.90;;;;;;5032459;28;20541;-58
2022/03/03 07:39:06;;;;;;;54.43;26.20;;;1.40;99.90;;;;;;5032457;28;20430;-58
2022/03/03 07:41:32;;;;;;;54.93;25.83;;;1.50;99.90;;;;;;5031471;28;20412;-55
2022/03/03 07:43:59;;;;;;;62.63;27.43;;;1.50;99.90;;;;;;5031926;28;20458;-57
2022/03/03 07:46:27;;;;;;;55.40;26.70;;;1.50;99.90;;;;;;5031066;28;20218;-56
2022/03/03 07:48:53;;;;;;;66.80;27.43;;;1.40;99.90;;;;;;5032402;28;20766;-57
2022/03/03 07:51:21;;;;;;;58.27;25.50;;;1.60;99.90;;;;;;5032860;28;20428;-57
2022/03/03 07:53:48;;;;;;;58.20;28.90;;;1.70;99.90;;;;;;5032219;28;20901;-58
2022/03/03 07:56:37;;;;;;;69.27;26.30;;;2.00;99.90;;;;;;5030617;28;20460;-55
2022/03/03 07:59:06;;;;;;;51.13;26.37;;;2.10;99.90;;;;;;5032555;28;20432;-55
2022/03/03 08:01:34;;;;;;;52.47;25.70;;;2.00;99.90;;;;;;5032619;28;20396;-58
2022/03/03 08:04:01;;;;;;;62.80;27.47;;;1.90;99.90;;;;;;5031870;28;20837;-60
2022/03/03 08:06:27;;;;;;;59.00;27.93;;;2.30;99.90;;;;;;5031805;28;20404;-59
2022/03/03 08:08:54;;;;;;;53.30;23.17;;;2.60;99.90;;;;;;5031834;28;20404;-56
2022/03/03 08:11:22;;;;;;;53.03;24.67;;;2.30;99.90;;;;;;5031945;28;20424;-52
2022/03/03 08:13:52;;;;;;;57.93;25.60;;;2.50;99.90;;;;;;5031738;28;20497;-56
2022/03/03 08:16:18;;;;;;;57.90;25.40;;;2.30;99.90;;;;;;5031785;28;20492;-54
2022/03/03 08:18:47;;;;;;;54.87;26.23;;;2.40;99.90;;;;;;5032127;28;20424;-59
2022/03/03 08:21:14;;;;;;;50.33;26.40;;;2.50;99.90;;;;;;5031561;28;20481;-54
2022/03/03 08:23:42;;;;;;;47.73;25.60;;;2.60;99.90;;;;;;5033255;28;20513;-55
2022/03/03 08:26:11;;;;;;;48.97;24.67;;;2.70;99.90;;;;;;5034706;28;20428;-55
2022/03/03 08:28:37;;;;;;;49.10;25.73;;;2.80;99.90;;;;;;5050682;28;20437;-55
2022/03/03 08:31:06;;;;;;;55.77;26.40;;;2.90;99.90;;;;;;5045608;28;20515;-55
2022/03/03 08:34:12;;;;;;;52.23;24.60;;;3.10;99.90;;;;;;5031610;28;20252;-54
2022/03/03 08:36:44;;;;;;;51.83;24.80;;;3.10;99.90;;;;;;5030987;28;20515;-52
2022/03/03 08:39:12;;;;;;;47.50;24.77;;;3.30;99.90;;;;;;5031146;28;20754;-54
2022/03/03 08:41:39;;;;;;;62.03;26.40;;;3.30;99.90;;;;;;5030953;28;20425;-55
2022/03/03 08:44:07;;;;;;;47.70;25.07;;;3.40;99.90;;;;;;5030945;28;20405;-53
2022/03/03 08:46:34;;;;;;;55.40;25.47;;;3.90;99.90;;;;;;5031484;28;20431;-55
2022/03/03 08:49:02;;;;;;;50.07;25.37;;;3.60;99.90;;;;;;5031382;28;20523;-55
2022/03/03 08:51:29;;;;;;;54.33;24.80;;;3.60;99.90;;;;;;5031512;28;20417;-57
2022/03/03 08:53:55;;;;;;;51.50;23.87;;;3.60;99.90;;;;;;5026292;28;20731;-55
2022/03/03 08:56:22;;;;;;;53.10;25.30;;;3.60;99.90;;;;;;5032333;28;20464;-54
2022/03/03 08:58:49;;;;;;;47.63;22.83;;;4.10;99.90;;;;;;5031218;28;20204;-56
2022/03/03 09:01:14;;;;;;;58.23;26.37;;;3.50;99.90;;;;;;5030610;28;20412;-54
2022/03/03 09:03:43;;;;;;;48.43;24.17;;;3.70;99.90;;;;;;5031263;28;20459;-55
2022/03/03 09:06:12;;;;;;;54.17;24.90;;;3.70;99.90;;;;;;5030895;28;20173;-57
2022/03/03 09:08:38;;;;;;;44.90;23.80;;;4.20;99.90;;;;;;5030743;28;20408;-56
2022/03/03 09:11:04;;;;;;;50.63;24.17;;;4.30;99.90;;;;;;5030739;28;20416;-53
2022/03/03 09:13:30;;;;;;;42.87;23.97;;;4.10;99.90;;;;;;5029437;28;20178;-55
2022/03/03 09:15:56;;;;;;;45.37;24.03;;;4.10;99.90;;;;;;5030857;28;20415;-55
2022/03/03 09:18:21;;;;;;;45.30;24.60;;;4.60;99.90;;;;;;5030496;28;20186;-55
2022/03/03 09:20:47;;;;;;;57.70;25.70;;;4.50;99.90;;;;;;5030471;28;20201;-55
2022/03/03 09:23:13;;;;;;;50.17;24.80;;;4.50;99.90;;;;;;5030416;28;20256;-56
2022/03/03 09:25:39;;;;;;;48.17;24.23;;;4.50;99.90;;;;;;5030839;28;20174;-56
2022/03/03 09:28:06;;;;;;;51.53;25.63;;;4.50;99.90;;;;;;5030525;28;20599;-59
2022/03/03 09:30:32;;;;;;;46.97;24.47;;;4.60;99.90;;;;;;5033024;28;20639;-55
2022/03/03 09:32:57;;;;;;;49.83;24.10;;;4.80;99.90;;;;;;5050553;28;20428;-56
2022/03/03 09:35:23;;;;;;;46.73;24.30;;;4.90;99.90;;;;;;5050532;28;20457;-54
2022/03/03 09:37:49;;;;;;;45.80;23.90;;;5.00;99.90;;;;;;5043204;28;20201;-53
2022/03/03 09:40:15;;;;;;;43.67;23.07;;;5.00;99.90;;;;;;5030790;28;20176;-54
2022/03/03 09:42:40;;;;;;;45.83;22.13;;;5.20;99.90;;;;;;5030577;28;20229;-54
2022/03/03 09:45:10;;;;;;;44.13;22.10;;;5.20;99.90;;;;;;5034120;28;20568;-52
2022/03/03 09:47:38;;;;;;;43.83;23.27;;;5.20;99.90;;;;;;5032677;28;20180;-55
2022/03/03 09:50:07;;;;;;;38.13;20.53;;;5.40;99.90;;;;;;5034351;28;20412;-54
2022/03/03 09:52:33;;;;;;;39.00;20.27;;;5.40;99.90;;;;;;5034059;28;20417;-53
2022/03/03 09:54:59;;;;;;;39.47;21.40;;;6.10;99.90;;;;;;5034001;28;20474;-53
2022/03/03 09:57:26;;;;;;;39.03;20.27;;;6.20;97.60;;;;;;5033991;28;20464;-53
2022/03/03 09:59:57;;;;;;;34.33;19.90;;;6.20;96.50;;;;;;5033891;28;20166;-56
2022/03/03 10:02:23;;;;;;;35.33;20.40;;;6.10;92.60;;;;;;5034480;28;20416;-53
2022/03/03 10:04:49;;;;;;;38.20;20.20;;;5.90;93.00;;;;;;5034380;28;21196;-53
2022/03/03 10:07:16;;;;;;;38.03;20.97;;;5.70;94.60;;;;;;5034622;28;20420;-52
2022/03/03 10:10:02;;;;;;;38.30;20.07;;;5.60;92.10;;;;;;5034315;28;20432;-51
2022/03/03 10:12:42;;;;;;;38.77;22.23;;;5.80;92.60;;;;;;5034404;28;20427;-52
2022/03/03 10:15:13;;;;;;;33.03;19.27;;;5.70;95.00;;;;;;5033805;28;20412;-53
2022/03/03 10:17:39;;;;;;;36.17;19.83;;;5.90;92.70;;;;;;5033826;28;20829;-53
2022/03/03 10:20:07;;;;;;;37.73;19.80;;;5.70;92.60;;;;;;5033932;28;20413;-52
2022/03/03 10:22:45;;;;;;;35.50;19.43;;;5.80;91.80;;;;;;5033704;28;20360;-52
2022/03/03 10:25:13;;;;;;;37.63;19.90;;;7.40;90.50;;;;;;5033542;28;20463;-54
2022/03/03 10:27:39;;;;;;;33.80;19.50;;;5.60;90.80;;;;;;5033863;28;20458;-53
2022/03/03 10:30:08;;;;;;;38.30;20.30;;;6.20;90.50;;;;;;5033615;28;20412;-53
2022/03/03 10:32:36;;;;;;;35.73;19.30;;;6.00;88.80;;;;;;5052794;28;20510;-52
2022/03/03 10:35:13;;;;;;;35.10;19.53;;;5.90;87.80;;;;;;5053596;28;20416;-56
2022/03/03 10:37:39;;;;;;;36.63;19.37;;;6.10;89.10;;;;;;5053508;28;20474;-53
2022/03/03 10:40:11;;;;;;;34.03;19.40;;;6.70;87.00;;;;;;5053472;28;20404;-53
2022/03/03 10:42:42;;;;;;;36.73;19.77;;;6.20;85.80;;;;;;5053423;28;20165;-54
2022/03/03 10:45:11;;;;;;;47.90;21.60;;;6.20;84.00;;;;;;5053166;28;20423;-53
2022/03/03 10:47:37;;;;;;;36.97;19.77;;;6.30;85.50;;;;;;5053527;28;20916;-52
2022/03/03 10:50:04;;;;;;;38.70;19.93;;;6.70;84.50;;;;;;5053126;28;20954;-53
2022/03/03 10:52:35;;;;;;;36.83;20.47;;;6.50;83.40;;;;;;5053672;28;20514;-54
2022/03/03 10:55:14;;;;;;;37.97;20.40;;;6.60;84.80;;;;;;5052536;28;20785;-52
2022/03/03 10:57:45;;;;;;;33.13;18.43;;;6.50;83.50;;;;;;5052849;28;20991;-57
2022/03/03 11:00:14;;;;;;;39.73;18.63;;;6.80;83.70;;;;;;5052555;28;20412;-55
2022/03/03 11:02:45;;;;;;;32.73;19.03;;;6.90;78.20;;;;;;5033089;28;20424;-54
2022/03/03 11:05:12;;;;;;;37.10;20.80;;;6.90;78.60;;;;;;5032721;28;20392;-57
2022/03/03 11:07:41;;;;;;;36.33;19.53;;;7.00;83.50;;;;;;5031399;28;20413;-54
2022/03/03 11:10:08;;;;;;;33.70;18.13;;;7.10;80.70;;;;;;5032699;28;20507;-52
2022/03/03 11:12:34;;;;;;;36.20;18.77;;;6.90;77.60;;;;;;5032612;28;20471;-57
2022/03/03 11:15:00;;;;;;;31.40;18.20;;;6.90;76.00;;;;;;5032532;28;20407;-57
2022/03/03 11:17:26;;;;;;;33.40;19.03;;;7.90;78.60;;;;;;5032368;28;20820;-58
2022/03/03 11:19:52;;;;;;;30.53;18.27;;;7.10;79.70;;;;;;5032441;28;20777;-57
2022/03/03 11:22:18;;;;;;;32.50;19.43;;;7.30;75.60;;;;;;5033099;28;20519;-57
2022/03/03 11:24:45;;;;;;;34.37;19.83;;;7.10;76.00;;;;;;5032766;28;20543;-54
2022/03/03 11:27:11;;;;;;;37.13;19.90;;;7.50;78.60;;;;;;5032654;28;20424;-54
2022/03/03 11:29:38;;;;;;;37.17;20.33;;;7.40;76.00;;;;;;5032810;28;20409;-54
2022/03/03 11:32:15;;;;;;;37.57;19.70;;;7.70;75.00;;;;;;5047806;28;20415;-55
2022/03/03 11:34:45;;;;;;;30.00;18.37;;;7.40;74.80;;;;;;5052815;28;20450;-55
2022/03/03 11:37:22;;;;;;;34.07;19.73;;;9.00;73.90;;;;;;5052354;28;20471;-54
2022/03/03 11:39:57;;;;;;;33.97;19.27;;;8.60;73.90;;;;;;5052939;28;20838;-55
2022/03/03 11:42:39;;;;;;;31.63;18.57;;;7.60;70.80;;;;;;5051223;28;20481;-55
2022/03/03 11:45:08;;;;;;;33.30;19.90;;;7.70;71.20;;;;;;5052427;28;20400;-54
2022/03/03 11:47:38;;;;;;;34.33;19.47;;;7.80;72.80;;;;;;5052462;28;20435;-55
2022/03/03 11:50:20;;;;;;;33.50;19.30;;;7.90;72.40;;;;;;5052379;28;20411;-55
2022/03/03 11:53:14;;;;;;;36.23;20.83;;;8.10;72.70;;;;;;5052515;28;20853;-56
2022/03/03 11:55:46;;;;;;;35.27;19.97;;;8.40;72.70;;;;;;5052386;28;20514;-56
2022/03/03 11:58:16;;;;;;;33.00;20.67;;;8.30;66.50;;;;;;5052330;28;20438;-54
2022/03/03 12:00:46;;;;;;;35.20;20.20;;;8.50;67.30;;;;;;5049113;28;20420;-55
2022/03/03 12:03:15;;;;;;;34.93;18.80;;;8.70;69.30;;;;;;5032494;28;20423;-55
2022/03/03 12:06:08;;;;;;;37.87;20.77;;;8.70;68.00;;;;;;5032464;28;20462;-52
2022/03/03 12:08:39;;;;;;;37.43;21.73;;;8.60;66.40;;;;;;5032402;28;20423;-54
2022/03/03 12:11:11;;;;;;;37.97;21.73;;;8.80;70.40;;;;;;5032299;28;20455;-55
2022/03/03 12:13:39;;;;;;;34.10;20.80;;;8.80;67.60;;;;;;5031859;28;20417;-56
2022/03/03 12:16:18;;;;;;;30.10;18.97;;;9.30;69.60;;;;;;5031962;28;20461;-52
2022/03/03 12:19:05;;;;;;;32.77;19.70;;;9.40;66.00;;;;;;5031952;28;20419;-58
2022/03/03 12:21:45;;;;;;;33.00;19.57;;;10.20;65.20;;;;;;5031747;28;20404;-54
2022/03/03 12:24:14;;;;;;;29.10;18.90;;;9.60;63.30;;;;;;5031401;28;20467;-54
2022/03/03 12:26:54;;;;;;;37.77;20.67;;;9.80;62.30;;;;;;5031679;28;20963;-55
2022/03/03 12:29:42;;;;;;;30.03;19.53;;;10.50;61.10;;;;;;5031751;28;20401;-58
2022/03/03 12:32:34;;;;;;;26.30;18.60;;;10.10;57.80;;;;;;5047298;28;20447;-55
2022/03/03 12:35:12;;;;;;;34.03;19.63;;;10.30;57.50;;;;;;5051835;28;20859;-56
2022/03/03 12:37:46;;;;;;;28.73;19.10;;;10.30;56.70;;;;;;5047578;28;20795;-59
2022/03/03 12:40:17;;;;;;;32.13;20.33;;;10.80;58.60;;;;;;5032021;28;20448;-60
2022/03/03 12:42:46;;;;;;;31.73;20.70;;;10.70;58.40;;;;;;5030454;28;20921;-58